KLVS

Las Vegas Municipal Airport

Las Vegas, New Mexico, USA
METAR KLVS 181853Z AUTO 21016G22KT 10SM CLR 12/M09 A3008 RMK AO2 SLP146 T01221089
Observed Flight Rules
Dec-18 @ 18:53 UTC (an hour ago) Visual Flight Rules
Wind Visibility Clouds
210° at 16 knots
 Gusting to 22 knots
10 miles
  • Clear skies
Temperatures Readings
Current 12°C / 54°F
Dewpoint -9°C / 16°F
Humidity 22%
Altimeter 30.08" Hg
Pressure 1014.6 hPa
Elevation 2091
METAR KLVS 181853Z AUTO 21016G22KT 10SM CLR 12/M09 A3008 RMK AO2 SLP146 T01221089
Observed Flight Rules
Dec-18 @ 18:53 UTC
(an hour ago)
VFR
Wind Visibility
210° at 16 knots
 Gusting to 22 knots
10 miles
Clouds
  • Clear skies
Temperature Dewpoint
12°C / 54°F -9°C / 16°F
Humidity Altimeter Pressure
22% 30.08" Hg 1014.6 hPa